< < Back
Terminal Aerodrome Forecast


Current Version              Previous Versions:   1  2  3  4  5  6  7  8  9  

Terminal Aerodrome Forecast

709
FTUS42 KMLB 291500 AAA
TAFMCO
TAF AMD
KMCO 291500Z 2915/3012 22003KT P6SM SCT018 BKN250
      TEMPO 2915/2916 BKN018
     FM291700 27007KT P6SM VCTS SCT030CB BKN050 BKN150
     FM300000 26006KT P6SM BKN080 BKN250=

Latest METAR

056
SAUS70 KWBC 292000 RRF
MTRMCO
METAR KMCO 291953Z 12007KT 10SM SCT038CB BKN050 BKN250 33/24 A2994 RMK
SLP136 CB NW AND DSNT SW-W MOV S TCU N T03280244


USA.gov is the U.S. government's official web portal to all federal, state and local government web resources and services.